sensor_id;sensor_type;location;lat;lon;timestamp;P1;durP1;ratioP1;P2;durP2;ratioP2
4106;SDS011;21906;50.812;7.132;2022-07-21T00:00:54;8.97;;;7.00;;
4106;SDS011;21906;50.812;7.132;2022-07-21T00:03:20;8.20;;;7.47;;
4106;SDS011;21906;50.812;7.132;2022-07-21T00:05:46;7.90;;;7.20;;
4106;SDS011;21906;50.812;7.132;2022-07-21T00:08:12;8.10;;;7.40;;
4106;SDS011;21906;50.812;7.132;2022-07-21T00:10:38;10.23;;;8.20;;
4106;SDS011;21906;50.812;7.132;2022-07-21T00:13:04;8.10;;;7.50;;
4106;SDS011;21906;50.812;7.132;2022-07-21T00:15:30;8.93;;;8.13;;
4106;SDS011;21906;50.812;7.132;2022-07-21T00:17:56;8.33;;;7.63;;
4106;SDS011;21906;50.812;7.132;2022-07-21T00:20:22;8.53;;;7.63;;
4106;SDS011;21906;50.812;7.132;2022-07-21T00:22:48;7.77;;;7.00;;
4106;SDS011;21906;50.812;7.132;2022-07-21T00:25:14;8.80;;;8.00;;
4106;SDS011;21906;50.812;7.132;2022-07-21T00:27:40;8.23;;;7.63;;
4106;SDS011;21906;50.812;7.132;2022-07-21T00:30:07;12.27;;;9.00;;
4106;SDS011;21906;50.812;7.132;2022-07-21T00:32:34;9.73;;;8.13;;
4106;SDS011;21906;50.812;7.132;2022-07-21T00:35:00;8.90;;;8.10;;
4106;SDS011;21906;50.812;7.132;2022-07-21T00:37:27;9.33;;;8.10;;
4106;SDS011;21906;50.812;7.132;2022-07-21T00:39:53;8.97;;;8.33;;
4106;SDS011;21906;50.812;7.132;2022-07-21T00:42:20;8.63;;;7.83;;
4106;SDS011;21906;50.812;7.132;2022-07-21T00:44:47;8.80;;;8.10;;
4106;SDS011;21906;50.812;7.132;2022-07-21T00:47:13;8.37;;;7.63;;
4106;SDS011;21906;50.812;7.132;2022-07-21T00:49:38;9.10;;;7.60;;
4106;SDS011;21906;50.812;7.132;2022-07-21T00:52:05;8.80;;;8.00;;
4106;SDS011;21906;50.812;7.132;2022-07-21T00:54:31;8.10;;;7.43;;
4106;SDS011;21906;50.812;7.132;2022-07-21T00:56:57;8.50;;;7.70;;
4106;SDS011;21906;50.812;7.132;2022-07-21T00:59:22;7.33;;;6.77;;
4106;SDS011;21906;50.812;7.132;2022-07-21T01:01:48;8.03;;;7.20;;
4106;SDS011;21906;50.812;7.132;2022-07-21T01:04:13;8.00;;;7.20;;
4106;SDS011;21906;50.812;7.132;2022-07-21T01:06:39;8.20;;;7.60;;
4106;SDS011;21906;50.812;7.132;2022-07-21T01:09:05;7.47;;;6.80;;
4106;SDS011;21906;50.812;7.132;2022-07-21T01:11:30;8.67;;;7.40;;
4106;SDS011;21906;50.812;7.132;2022-07-21T01:13:57;8.53;;;7.63;;
4106;SDS011;21906;50.812;7.132;2022-07-21T01:16:22;9.23;;;8.53;;
4106;SDS011;21906;50.812;7.132;2022-07-21T01:18:48;10.13;;;9.10;;
4106;SDS011;21906;50.812;7.132;2022-07-21T01:21:27;10.50;;;9.13;;
4106;SDS011;21906;50.812;7.132;2022-07-21T01:23:57;9.73;;;8.93;;
4106;SDS011;21906;50.812;7.132;2022-07-21T01:26:24;10.33;;;9.47;;
4106;SDS011;21906;50.812;7.132;2022-07-21T01:28:50;10.50;;;9.57;;
4106;SDS011;21906;50.812;7.132;2022-07-21T01:31:16;10.77;;;9.67;;
4106;SDS011;21906;50.812;7.132;2022-07-21T01:33:42;11.67;;;9.07;;
4106;SDS011;21906;50.812;7.132;2022-07-21T01:36:08;10.73;;;9.60;;
4106;SDS011;21906;50.812;7.132;2022-07-21T01:38:34;10.40;;;9.40;;
4106;SDS011;21906;50.812;7.132;2022-07-21T01:41:18;10.83;;;9.93;;
4106;SDS011;21906;50.812;7.132;2022-07-21T01:43:59;10.90;;;9.80;;
4106;SDS011;21906;50.812;7.132;2022-07-21T01:46:27;9.63;;;8.93;;
4106;SDS011;21906;50.812;7.132;2022-07-21T01:48:58;10.27;;;9.13;;
4106;SDS011;21906;50.812;7.132;2022-07-21T01:51:24;9.77;;;8.87;;
4106;SDS011;21906;50.812;7.132;2022-07-21T01:53:50;9.83;;;8.97;;
4106;SDS011;21906;50.812;7.132;2022-07-21T01:56:18;10.03;;;9.13;;
4106;SDS011;21906;50.812;7.132;2022-07-21T01:58:46;9.80;;;8.83;;
4106;SDS011;21906;50.812;7.132;2022-07-21T02:01:12;10.10;;;9.20;;
4106;SDS011;21906;50.812;7.132;2022-07-21T02:03:41;10.20;;;9.30;;
4106;SDS011;21906;50.812;7.132;2022-07-21T02:06:07;9.87;;;9.03;;
4106;SDS011;21906;50.812;7.132;2022-07-21T02:08:33;11.23;;;10.23;;
4106;SDS011;21906;50.812;7.132;2022-07-21T02:11:00;9.97;;;9.03;;
4106;SDS011;21906;50.812;7.132;2022-07-21T02:13:26;11.83;;;9.63;;
4106;SDS011;21906;50.812;7.132;2022-07-21T02:15:52;10.00;;;9.00;;
4106;SDS011;21906;50.812;7.132;2022-07-21T02:18:18;10.53;;;9.53;;
4106;SDS011;21906;50.812;7.132;2022-07-21T02:20:44;11.73;;;10.00;;
4106;SDS011;21906;50.812;7.132;2022-07-21T02:23:12;10.10;;;9.30;;
4106;SDS011;21906;50.812;7.132;2022-07-21T02:25:40;11.63;;;10.40;;
4106;SDS011;21906;50.812;7.132;2022-07-21T02:28:06;9.70;;;8.90;;
4106;SDS011;21906;50.812;7.132;2022-07-21T02:30:31;9.87;;;8.90;;
4106;SDS011;21906;50.812;7.132;2022-07-21T02:32:57;10.80;;;9.70;;
4106;SDS011;21906;50.812;7.132;2022-07-21T02:35:23;10.73;;;9.63;;
4106;SDS011;21906;50.812;7.132;2022-07-21T02:37:48;9.47;;;8.63;;
4106;SDS011;21906;50.812;7.132;2022-07-21T02:40:14;12.00;;;9.97;;
4106;SDS011;21906;50.812;7.132;2022-07-21T02:42:40;11.20;;;10.10;;
4106;SDS011;21906;50.812;7.132;2022-07-21T02:45:06;11.70;;;10.50;;
4106;SDS011;21906;50.812;7.132;2022-07-21T02:47:33;9.87;;;8.97;;
4106;SDS011;21906;50.812;7.132;2022-07-21T02:50:23;10.30;;;9.27;;
4106;SDS011;21906;50.812;7.132;2022-07-21T02:52:53;10.60;;;9.60;;
4106;SDS011;21906;50.812;7.132;2022-07-21T02:55:20;11.90;;;10.80;;
4106;SDS011;21906;50.812;7.132;2022-07-21T02:57:46;10.10;;;9.20;;
4106;SDS011;21906;50.812;7.132;2022-07-21T03:00:11;9.80;;;8.90;;
4106;SDS011;21906;50.812;7.132;2022-07-21T03:02:37;10.43;;;9.40;;
4106;SDS011;21906;50.812;7.132;2022-07-21T03:05:03;9.40;;;8.70;;
4106;SDS011;21906;50.812;7.132;2022-07-21T03:07:29;10.73;;;9.73;;
4106;SDS011;21906;50.812;7.132;2022-07-21T03:09:55;10.10;;;9.20;;
4106;SDS011;21906;50.812;7.132;2022-07-21T03:12:20;8.60;;;7.93;;
4106;SDS011;21906;50.812;7.132;2022-07-21T03:14:47;9.20;;;8.50;;
4106;SDS011;21906;50.812;7.132;2022-07-21T03:17:12;10.07;;;9.20;;
4106;SDS011;21906;50.812;7.132;2022-07-21T03:19:38;10.37;;;9.37;;
4106;SDS011;21906;50.812;7.132;2022-07-21T03:22:04;11.37;;;10.30;;
4106;SDS011;21906;50.812;7.132;2022-07-21T03:24:30;10.47;;;9.47;;
4106;SDS011;21906;50.812;7.132;2022-07-21T03:26:56;10.73;;;9.73;;
4106;SDS011;21906;50.812;7.132;2022-07-21T03:29:23;10.43;;;9.50;;
4106;SDS011;21906;50.812;7.132;2022-07-21T03:31:48;12.00;;;10.50;;
4106;SDS011;21906;50.812;7.132;2022-07-21T03:34:14;12.07;;;10.97;;
4106;SDS011;21906;50.812;7.132;2022-07-21T03:36:40;10.30;;;9.40;;
4106;SDS011;21906;50.812;7.132;2022-07-21T03:39:06;11.53;;;10.33;;
4106;SDS011;21906;50.812;7.132;2022-07-21T03:41:31;11.30;;;9.83;;
4106;SDS011;21906;50.812;7.132;2022-07-21T03:43:57;10.80;;;9.67;;
4106;SDS011;21906;50.812;7.132;2022-07-21T03:46:23;10.87;;;9.23;;
4106;SDS011;21906;50.812;7.132;2022-07-21T03:48:48;9.77;;;8.87;;
4106;SDS011;21906;50.812;7.132;2022-07-21T03:51:14;9.70;;;8.80;;
4106;SDS011;21906;50.812;7.132;2022-07-21T03:53:40;10.23;;;9.37;;
4106;SDS011;21906;50.812;7.132;2022-07-21T03:56:06;12.10;;;9.53;;
4106;SDS011;21906;50.812;7.132;2022-07-21T03:58:31;11.10;;;9.87;;
4106;SDS011;21906;50.812;7.132;2022-07-21T04:00:57;15.23;;;11.00;;
4106;SDS011;21906;50.812;7.132;2022-07-21T04:03:23;11.17;;;9.73;;
4106;SDS011;21906;50.812;7.132;2022-07-21T04:05:49;9.33;;;8.43;;
4106;SDS011;21906;50.812;7.132;2022-07-21T04:08:15;10.07;;;9.10;;
4106;SDS011;21906;50.812;7.132;2022-07-21T04:10:41;9.50;;;8.60;;
4106;SDS011;21906;50.812;7.132;2022-07-21T04:13:09;13.37;;;9.00;;
4106;SDS011;21906;50.812;7.132;2022-07-21T04:15:36;10.63;;;9.63;;
4106;SDS011;21906;50.812;7.132;2022-07-21T04:18:03;11.40;;;9.57;;
4106;SDS011;21906;50.812;7.132;2022-07-21T04:20:29;10.40;;;9.40;;
4106;SDS011;21906;50.812;7.132;2022-07-21T04:22:55;9.90;;;9.00;;
4106;SDS011;21906;50.812;7.132;2022-07-21T04:25:21;9.90;;;9.00;;
4106;SDS011;21906;50.812;7.132;2022-07-21T04:27:47;10.67;;;9.50;;
4106;SDS011;21906;50.812;7.132;2022-07-21T04:30:15;9.30;;;8.50;;
4106;SDS011;21906;50.812;7.132;2022-07-21T04:32:45;10.87;;;8.13;;
4106;SDS011;21906;50.812;7.132;2022-07-21T04:35:11;9.57;;;8.67;;
4106;SDS011;21906;50.812;7.132;2022-07-21T04:37:38;9.70;;;8.80;;
4106;SDS011;21906;50.812;7.132;2022-07-21T04:40:05;9.87;;;7.83;;
4106;SDS011;21906;50.812;7.132;2022-07-21T04:42:32;10.23;;;9.33;;
4106;SDS011;21906;50.812;7.132;2022-07-21T04:44:59;9.70;;;8.87;;
4106;SDS011;21906;50.812;7.132;2022-07-21T04:47:25;8.67;;;7.97;;
4106;SDS011;21906;50.812;7.132;2022-07-21T04:49:50;9.13;;;8.40;;
4106;SDS011;21906;50.812;7.132;2022-07-21T04:52:16;9.47;;;8.30;;
4106;SDS011;21906;50.812;7.132;2022-07-21T04:54:41;8.73;;;8.03;;
4106;SDS011;21906;50.812;7.132;2022-07-21T04:57:07;8.83;;;8.10;;
4106;SDS011;21906;50.812;7.132;2022-07-21T04:59:33;9.50;;;8.60;;
4106;SDS011;21906;50.812;7.132;2022-07-21T05:02:00;8.70;;;7.90;;
4106;SDS011;21906;50.812;7.132;2022-07-21T05:04:27;8.73;;;7.53;;
4106;SDS011;21906;50.812;7.132;2022-07-21T05:06:52;8.50;;;7.90;;
4106;SDS011;21906;50.812;7.132;2022-07-21T05:09:18;10.50;;;9.27;;
4106;SDS011;21906;50.812;7.132;2022-07-21T05:11:44;7.57;;;7.03;;
4106;SDS011;21906;50.812;7.132;2022-07-21T05:14:10;9.43;;;8.17;;
4106;SDS011;21906;50.812;7.132;2022-07-21T05:16:36;8.33;;;7.63;;
4106;SDS011;21906;50.812;7.132;2022-07-21T05:19:01;8.10;;;7.50;;
4106;SDS011;21906;50.812;7.132;2022-07-21T05:21:27;9.00;;;8.23;;
4106;SDS011;21906;50.812;7.132;2022-07-21T05:23:53;7.90;;;7.30;;
4106;SDS011;21906;50.812;7.132;2022-07-21T05:26:18;8.40;;;7.70;;
4106;SDS011;21906;50.812;7.132;2022-07-21T05:28:44;9.00;;;8.10;;
4106;SDS011;21906;50.812;7.132;2022-07-21T05:31:10;8.50;;;7.80;;
4106;SDS011;21906;50.812;7.132;2022-07-21T05:33:35;7.97;;;7.33;;
4106;SDS011;21906;50.812;7.132;2022-07-21T05:36:02;8.30;;;7.53;;
4106;SDS011;21906;50.812;7.132;2022-07-21T05:38:28;9.47;;;7.10;;
4106;SDS011;21906;50.812;7.132;2022-07-21T05:40:54;8.33;;;7.63;;
4106;SDS011;21906;50.812;7.132;2022-07-21T05:43:20;8.30;;;7.60;;
4106;SDS011;21906;50.812;7.132;2022-07-21T05:45:46;8.70;;;8.07;;
4106;SDS011;21906;50.812;7.132;2022-07-21T05:48:12;9.27;;;8.37;;
4106;SDS011;21906;50.812;7.132;2022-07-21T05:50:37;9.07;;;8.27;;
4106;SDS011;21906;50.812;7.132;2022-07-21T05:53:03;9.63;;;8.87;;
4106;SDS011;21906;50.812;7.132;2022-07-21T05:55:28;11.90;;;8.20;;
4106;SDS011;21906;50.812;7.132;2022-07-21T05:57:54;9.63;;;8.23;;
4106;SDS011;21906;50.812;7.132;2022-07-21T06:00:20;9.40;;;8.50;;
4106;SDS011;21906;50.812;7.132;2022-07-21T06:02:45;9.00;;;8.20;;
4106;SDS011;21906;50.812;7.132;2022-07-21T06:05:11;10.20;;;9.20;;
4106;SDS011;21906;50.812;7.132;2022-07-21T06:07:39;10.37;;;9.13;;
4106;SDS011;21906;50.812;7.132;2022-07-21T06:10:05;9.93;;;8.90;;
4106;SDS011;21906;50.812;7.132;2022-07-21T06:12:32;9.07;;;8.20;;
4106;SDS011;21906;50.812;7.132;2022-07-21T06:14:58;9.80;;;9.00;;
4106;SDS011;21906;50.812;7.132;2022-07-21T06:17:23;9.57;;;8.77;;
4106;SDS011;21906;50.812;7.132;2022-07-21T06:19:49;10.13;;;9.20;;
4106;SDS011;21906;50.812;7.132;2022-07-21T06:22:15;10.50;;;9.50;;
4106;SDS011;21906;50.812;7.132;2022-07-21T06:24:41;10.17;;;9.20;;
4106;SDS011;21906;50.812;7.132;2022-07-21T06:27:07;9.70;;;8.97;;
4106;SDS011;21906;50.812;7.132;2022-07-21T06:29:33;10.83;;;9.83;;
4106;SDS011;21906;50.812;7.132;2022-07-21T06:31:59;10.40;;;9.50;;
4106;SDS011;21906;50.812;7.132;2022-07-21T06:34:25;10.20;;;9.07;;
4106;SDS011;21906;50.812;7.132;2022-07-21T06:36:51;9.73;;;8.80;;
4106;SDS011;21906;50.812;7.132;2022-07-21T06:39:17;8.80;;;8.00;;
4106;SDS011;21906;50.812;7.132;2022-07-21T06:41:43;9.57;;;8.70;;
4106;SDS011;21906;50.812;7.132;2022-07-21T06:44:08;9.87;;;8.57;;
4106;SDS011;21906;50.812;7.132;2022-07-21T06:46:34;9.10;;;8.40;;
4106;SDS011;21906;50.812;7.132;2022-07-21T06:49:00;10.03;;;8.90;;
4106;SDS011;21906;50.812;7.132;2022-07-21T06:51:27;10.37;;;9.47;;
4106;SDS011;21906;50.812;7.132;2022-07-21T06:53:54;9.80;;;8.80;;
4106;SDS011;21906;50.812;7.132;2022-07-21T06:56:19;8.10;;;7.50;;
4106;SDS011;21906;50.812;7.132;2022-07-21T06:58:45;8.77;;;7.97;;
4106;SDS011;21906;50.812;7.132;2022-07-21T07:01:11;11.20;;;7.90;;
4106;SDS011;21906;50.812;7.132;2022-07-21T07:03:38;7.70;;;7.10;;
4106;SDS011;21906;50.812;7.132;2022-07-21T07:06:04;8.93;;;8.23;;
4106;SDS011;21906;50.812;7.132;2022-07-21T07:08:31;8.30;;;7.70;;
4106;SDS011;21906;50.812;7.132;2022-07-21T07:10:57;7.67;;;6.87;;
4106;SDS011;21906;50.812;7.132;2022-07-21T07:13:23;7.60;;;7.07;;
4106;SDS011;21906;50.812;7.132;2022-07-21T07:15:48;8.00;;;7.40;;
4106;SDS011;21906;50.812;7.132;2022-07-21T07:18:14;6.97;;;6.40;;
4106;SDS011;21906;50.812;7.132;2022-07-21T07:20:40;7.90;;;7.30;;
4106;SDS011;21906;50.812;7.132;2022-07-21T07:23:06;10.10;;;8.20;;
4106;SDS011;21906;50.812;7.132;2022-07-21T07:25:31;7.90;;;7.10;;
4106;SDS011;21906;50.812;7.132;2022-07-21T07:27:57;8.50;;;7.73;;
4106;SDS011;21906;50.812;7.132;2022-07-21T07:30:23;8.47;;;7.70;;
4106;SDS011;21906;50.812;7.132;2022-07-21T07:32:49;8.90;;;8.23;;
4106;SDS011;21906;50.812;7.132;2022-07-21T07:35:15;8.70;;;8.00;;
4106;SDS011;21906;50.812;7.132;2022-07-21T07:37:43;7.57;;;7.07;;
4106;SDS011;21906;50.812;7.132;2022-07-21T07:40:12;8.43;;;7.73;;
4106;SDS011;21906;50.812;7.132;2022-07-21T07:42:40;8.03;;;7.37;;
4106;SDS011;21906;50.812;7.132;2022-07-21T07:45:06;7.80;;;7.20;;
4106;SDS011;21906;50.812;7.132;2022-07-21T07:47:33;8.20;;;7.50;;
4106;SDS011;21906;50.812;7.132;2022-07-21T07:50:00;7.00;;;6.50;;
4106;SDS011;21906;50.812;7.132;2022-07-21T07:52:26;6.70;;;6.30;;
4106;SDS011;21906;50.812;7.132;2022-07-21T07:54:53;6.57;;;6.17;;
4106;SDS011;21906;50.812;7.132;2022-07-21T07:57:18;7.83;;;7.13;;
4106;SDS011;21906;50.812;7.132;2022-07-21T07:59:44;6.93;;;6.53;;
4106;SDS011;21906;50.812;7.132;2022-07-21T08:02:10;7.27;;;6.63;;
4106;SDS011;21906;50.812;7.132;2022-07-21T08:04:35;7.03;;;6.43;;
4106;SDS011;21906;50.812;7.132;2022-07-21T08:07:02;7.10;;;6.60;;
4106;SDS011;21906;50.812;7.132;2022-07-21T08:09:28;7.80;;;7.20;;
4106;SDS011;21906;50.812;7.132;2022-07-21T08:11:54;6.60;;;6.10;;
4106;SDS011;21906;50.812;7.132;2022-07-21T08:14:20;6.80;;;6.40;;
4106;SDS011;21906;50.812;7.132;2022-07-21T08:16:47;6.30;;;5.80;;
4106;SDS011;21906;50.812;7.132;2022-07-21T08:19:13;5.93;;;5.60;;
4106;SDS011;21906;50.812;7.132;2022-07-21T08:21:39;6.83;;;6.33;;
4106;SDS011;21906;50.812;7.132;2022-07-21T08:24:04;6.90;;;6.30;;
4106;SDS011;21906;50.812;7.132;2022-07-21T08:26:30;6.97;;;6.47;;
4106;SDS011;21906;50.812;7.132;2022-07-21T08:28:56;6.90;;;6.50;;
4106;SDS011;21906;50.812;7.132;2022-07-21T08:31:22;8.27;;;7.47;;
4106;SDS011;21906;50.812;7.132;2022-07-21T08:33:50;6.90;;;6.50;;
4106;SDS011;21906;50.812;7.132;2022-07-21T08:36:16;6.03;;;5.73;;
4106;SDS011;21906;50.812;7.132;2022-07-21T08:38:42;7.03;;;6.60;;
4106;SDS011;21906;50.812;7.132;2022-07-21T08:41:07;6.70;;;6.30;;
4106;SDS011;21906;50.812;7.132;2022-07-21T08:43:34;6.57;;;6.17;;
4106;SDS011;21906;50.812;7.132;2022-07-21T08:46:00;6.93;;;6.43;;
4106;SDS011;21906;50.812;7.132;2022-07-21T08:48:26;7.43;;;6.83;;
4106;SDS011;21906;50.812;7.132;2022-07-21T08:50:54;6.77;;;6.47;;
4106;SDS011;21906;50.812;7.132;2022-07-21T08:53:20;7.73;;;7.00;;
4106;SDS011;21906;50.812;7.132;2022-07-21T08:55:46;7.10;;;6.60;;
4106;SDS011;21906;50.812;7.132;2022-07-21T08:58:13;6.57;;;6.17;;
4106;SDS011;21906;50.812;7.132;2022-07-21T09:00:40;7.27;;;6.77;;
4106;SDS011;21906;50.812;7.132;2022-07-21T09:05:59;7.30;;;6.80;;
4106;SDS011;21906;50.812;7.132;2022-07-21T09:08:30;6.47;;;6.07;;
4106;SDS011;21906;50.812;7.132;2022-07-21T09:13:40;6.77;;;6.13;;
4106;SDS011;21906;50.812;7.132;2022-07-21T09:16:07;6.17;;;5.77;;
4106;SDS011;21906;50.812;7.132;2022-07-21T09:18:34;7.80;;;6.87;;
4106;SDS011;21906;50.812;7.132;2022-07-21T09:21:13;6.50;;;6.10;;
4106;SDS011;21906;50.812;7.132;2022-07-21T09:23:40;6.47;;;6.07;;
4106;SDS011;21906;50.812;7.132;2022-07-21T09:26:06;7.10;;;6.10;;
4106;SDS011;21906;50.812;7.132;2022-07-21T09:28:32;6.50;;;6.00;;
4106;SDS011;21906;50.812;7.132;2022-07-21T09:31:08;6.50;;;6.00;;
4106;SDS011;21906;50.812;7.132;2022-07-21T09:33:41;6.07;;;5.67;;
4106;SDS011;21906;50.812;7.132;2022-07-21T09:36:17;6.23;;;5.83;;
4106;SDS011;21906;50.812;7.132;2022-07-21T09:38:53;7.33;;;6.47;;
4106;SDS011;21906;50.812;7.132;2022-07-21T09:41:25;6.90;;;6.40;;
4106;SDS011;21906;50.812;7.132;2022-07-21T09:43:52;6.23;;;5.83;;
4106;SDS011;21906;50.812;7.132;2022-07-21T09:46:20;6.80;;;6.30;;
4106;SDS011;21906;50.812;7.132;2022-07-21T09:48:49;6.60;;;6.10;;
4106;SDS011;21906;50.812;7.132;2022-07-21T09:56:18;7.10;;;6.60;;
4106;SDS011;21906;50.812;7.132;2022-07-21T09:58:48;6.27;;;5.70;;
4106;SDS011;21906;50.812;7.132;2022-07-21T10:01:16;6.77;;;6.30;;
4106;SDS011;21906;50.812;7.132;2022-07-21T10:03:42;7.50;;;6.90;;
4106;SDS011;21906;50.812;7.132;2022-07-21T10:06:10;7.77;;;7.27;;
4106;SDS011;21906;50.812;7.132;2022-07-21T10:08:36;7.33;;;6.70;;
4106;SDS011;21906;50.812;7.132;2022-07-21T10:11:03;7.20;;;6.70;;
4106;SDS011;21906;50.812;7.132;2022-07-21T10:13:29;7.17;;;6.77;;
4106;SDS011;21906;50.812;7.132;2022-07-21T10:15:55;7.20;;;6.70;;
4106;SDS011;21906;50.812;7.132;2022-07-21T10:18:22;7.43;;;6.90;;
4106;SDS011;21906;50.812;7.132;2022-07-21T10:23:57;7.00;;;6.60;;
4106;SDS011;21906;50.812;7.132;2022-07-21T10:26:24;8.80;;;8.00;;
4106;SDS011;21906;50.812;7.132;2022-07-21T10:28:49;8.10;;;6.53;;
4106;SDS011;21906;50.812;7.132;2022-07-21T10:36:11;5.57;;;5.23;;
4106;SDS011;21906;50.812;7.132;2022-07-21T10:41:44;5.30;;;4.90;;
4106;SDS011;21906;50.812;7.132;2022-07-21T10:49:50;5.27;;;4.90;;
4106;SDS011;21906;50.812;7.132;2022-07-21T10:55:16;5.97;;;5.40;;
4106;SDS011;21906;50.812;7.132;2022-07-21T11:00:45;4.97;;;4.77;;
4106;SDS011;21906;50.812;7.132;2022-07-21T11:03:17;5.73;;;5.30;;
4106;SDS011;21906;50.812;7.132;2022-07-21T11:11:30;6.10;;;5.70;;
4106;SDS011;21906;50.812;7.132;2022-07-21T11:21:53;6.30;;;5.90;;
4106;SDS011;21906;50.812;7.132;2022-07-21T11:24:19;5.93;;;5.53;;
4106;SDS011;21906;50.812;7.132;2022-07-21T11:29:29;6.20;;;5.80;;
4106;SDS011;21906;50.812;7.132;2022-07-21T11:31:56;6.27;;;5.87;;
4106;SDS011;21906;50.812;7.132;2022-07-21T11:34:23;6.13;;;5.53;;
4106;SDS011;21906;50.812;7.132;2022-07-21T11:37:02;5.77;;;5.47;;
4106;SDS011;21906;50.812;7.132;2022-07-21T11:39:28;7.10;;;6.50;;
4106;SDS011;21906;50.812;7.132;2022-07-21T11:41:54;6.93;;;6.43;;
4106;SDS011;21906;50.812;7.132;2022-07-21T11:44:26;7.20;;;6.53;;
4106;SDS011;21906;50.812;7.132;2022-07-21T11:46:56;7.07;;;6.57;;
4106;SDS011;21906;50.812;7.132;2022-07-21T11:49:27;7.47;;;6.80;;
4106;SDS011;21906;50.812;7.132;2022-07-21T11:51:54;7.23;;;6.33;;
4106;SDS011;21906;50.812;7.132;2022-07-21T11:55:05;7.70;;;7.03;;
4106;SDS011;21906;50.812;7.132;2022-07-21T11:57:15;7.63;;;7.10;;
4106;SDS011;21906;50.812;7.132;2022-07-21T11:59:41;8.60;;;7.90;;
4106;SDS011;21906;50.812;7.132;2022-07-21T12:07:12;9.20;;;8.40;;
4106;SDS011;21906;50.812;7.132;2022-07-21T12:09:39;10.10;;;9.30;;
4106;SDS011;21906;50.812;7.132;2022-07-21T12:12:05;9.37;;;8.73;;
4106;SDS011;21906;50.812;7.132;2022-07-21T12:14:38;10.73;;;9.63;;
4106;SDS011;21906;50.812;7.132;2022-07-21T12:17:14;11.50;;;10.47;;
4106;SDS011;21906;50.812;7.132;2022-07-21T12:19:42;11.83;;;10.60;;
4106;SDS011;21906;50.812;7.132;2022-07-21T12:22:08;11.03;;;10.23;;
4106;SDS011;21906;50.812;7.132;2022-07-21T12:24:47;10.27;;;9.30;;
4106;SDS011;21906;50.812;7.132;2022-07-21T12:27:20;11.60;;;10.60;;
4106;SDS011;21906;50.812;7.132;2022-07-21T12:29:46;12.40;;;11.20;;
4106;SDS011;21906;50.812;7.132;2022-07-21T12:32:13;10.30;;;9.37;;
4106;SDS011;21906;50.812;7.132;2022-07-21T12:34:49;10.83;;;9.73;;
4106;SDS011;21906;50.812;7.132;2022-07-21T12:37:16;10.73;;;9.87;;
4106;SDS011;21906;50.812;7.132;2022-07-21T12:39:42;10.63;;;9.73;;
4106;SDS011;21906;50.812;7.132;2022-07-21T12:42:27;10.80;;;9.73;;
4106;SDS011;21906;50.812;7.132;2022-07-21T12:44:53;11.10;;;10.17;;
4106;SDS011;21906;50.812;7.132;2022-07-21T12:47:20;10.70;;;9.63;;
4106;SDS011;21906;50.812;7.132;2022-07-21T12:50:03;10.60;;;9.57;;
4106;SDS011;21906;50.812;7.132;2022-07-21T12:52:31;11.37;;;10.27;;
4106;SDS011;21906;50.812;7.132;2022-07-21T12:54:57;9.77;;;8.97;;
4106;SDS011;21906;50.812;7.132;2022-07-21T12:57:26;11.17;;;10.00;;
4106;SDS011;21906;50.812;7.132;2022-07-21T12:59:57;10.90;;;10.07;;
4106;SDS011;21906;50.812;7.132;2022-07-21T13:02:23;11.87;;;10.77;;
4106;SDS011;21906;50.812;7.132;2022-07-21T13:04:49;11.90;;;10.70;;
4106;SDS011;21906;50.812;7.132;2022-07-21T13:07:15;10.17;;;9.33;;
4106;SDS011;21906;50.812;7.132;2022-07-21T13:09:41;11.00;;;10.10;;
4106;SDS011;21906;50.812;7.132;2022-07-21T13:12:07;10.33;;;9.33;;
4106;SDS011;21906;50.812;7.132;2022-07-21T13:14:33;10.73;;;9.73;;
4106;SDS011;21906;50.812;7.132;2022-07-21T13:16:59;11.50;;;10.50;;
4106;SDS011;21906;50.812;7.132;2022-07-21T13:19:25;11.60;;;9.77;;
4106;SDS011;21906;50.812;7.132;2022-07-21T13:21:51;10.93;;;9.87;;
4106;SDS011;21906;50.812;7.132;2022-07-21T13:24:17;11.27;;;10.27;;
4106;SDS011;21906;50.812;7.132;2022-07-21T13:26:44;10.50;;;9.50;;
4106;SDS011;21906;50.812;7.132;2022-07-21T13:29:09;11.67;;;10.57;;
4106;SDS011;21906;50.812;7.132;2022-07-21T13:31:35;10.50;;;9.50;;
4106;SDS011;21906;50.812;7.132;2022-07-21T13:34:02;10.43;;;9.40;;
4106;SDS011;21906;50.812;7.132;2022-07-21T13:36:31;11.20;;;10.30;;
4106;SDS011;21906;50.812;7.132;2022-07-21T13:38:57;13.47;;;10.90;;
4106;SDS011;21906;50.812;7.132;2022-07-21T13:41:23;10.80;;;9.90;;
4106;SDS011;21906;50.812;7.132;2022-07-21T13:43:49;11.30;;;10.20;;
4106;SDS011;21906;50.812;7.132;2022-07-21T13:46:16;11.40;;;10.27;;
4106;SDS011;21906;50.812;7.132;2022-07-21T13:48:42;11.80;;;10.80;;
4106;SDS011;21906;50.812;7.132;2022-07-21T13:51:10;13.77;;;11.10;;
4106;SDS011;21906;50.812;7.132;2022-07-21T13:53:36;12.13;;;11.03;;
4106;SDS011;21906;50.812;7.132;2022-07-21T13:56:03;12.87;;;11.60;;
4106;SDS011;21906;50.812;7.132;2022-07-21T13:58:29;12.27;;;11.07;;
4106;SDS011;21906;50.812;7.132;2022-07-21T14:00:55;12.67;;;11.50;;
4106;SDS011;21906;50.812;7.132;2022-07-21T14:03:20;11.63;;;10.53;;
4106;SDS011;21906;50.812;7.132;2022-07-21T14:05:46;12.13;;;10.93;;
4106;SDS011;21906;50.812;7.132;2022-07-21T14:08:12;11.17;;;10.17;;
4106;SDS011;21906;50.812;7.132;2022-07-21T14:10:37;12.00;;;10.80;;
4106;SDS011;21906;50.812;7.132;2022-07-21T14:13:04;12.13;;;10.23;;
4106;SDS011;21906;50.812;7.132;2022-07-21T14:15:30;12.30;;;11.10;;
4106;SDS011;21906;50.812;7.132;2022-07-21T14:17:55;11.83;;;10.80;;
4106;SDS011;21906;50.812;7.132;2022-07-21T14:20:21;11.83;;;10.83;;
4106;SDS011;21906;50.812;7.132;2022-07-21T14:22:47;13.50;;;12.13;;
4106;SDS011;21906;50.812;7.132;2022-07-21T14:25:12;12.43;;;11.20;;
4106;SDS011;21906;50.812;7.132;2022-07-21T14:27:44;10.67;;;9.77;;
4106;SDS011;21906;50.812;7.132;2022-07-21T14:30:15;9.67;;;8.73;;
4106;SDS011;21906;50.812;7.132;2022-07-21T14:32:41;9.03;;;8.33;;
4106;SDS011;21906;50.812;7.132;2022-07-21T14:35:07;9.77;;;8.97;;
4106;SDS011;21906;50.812;7.132;2022-07-21T14:37:33;12.00;;;10.83;;
4106;SDS011;21906;50.812;7.132;2022-07-21T14:39:59;12.37;;;11.17;;
4106;SDS011;21906;50.812;7.132;2022-07-21T14:42:25;11.20;;;10.20;;
4106;SDS011;21906;50.812;7.132;2022-07-21T14:44:50;14.93;;;11.37;;
4106;SDS011;21906;50.812;7.132;2022-07-21T14:47:16;12.33;;;11.03;;
4106;SDS011;21906;50.812;7.132;2022-07-21T14:49:42;13.30;;;11.90;;
4106;SDS011;21906;50.812;7.132;2022-07-21T14:52:08;13.83;;;12.43;;
4106;SDS011;21906;50.812;7.132;2022-07-21T14:54:34;13.33;;;11.80;;
4106;SDS011;21906;50.812;7.132;2022-07-21T14:57:01;15.00;;;13.50;;
4106;SDS011;21906;50.812;7.132;2022-07-21T14:59:27;14.70;;;13.13;;
4106;SDS011;21906;50.812;7.132;2022-07-21T15:01:53;16.23;;;13.93;;
4106;SDS011;21906;50.812;7.132;2022-07-21T15:04:18;15.80;;;13.90;;
4106;SDS011;21906;50.812;7.132;2022-07-21T15:06:45;18.70;;;15.60;;
4106;SDS011;21906;50.812;7.132;2022-07-21T15:09:11;16.03;;;14.47;;
4106;SDS011;21906;50.812;7.132;2022-07-21T15:11:37;18.30;;;14.93;;
4106;SDS011;21906;50.812;7.132;2022-07-21T15:14:03;15.43;;;13.83;;
4106;SDS011;21906;50.812;7.132;2022-07-21T15:16:29;15.00;;;13.47;;
4106;SDS011;21906;50.812;7.132;2022-07-21T15:18:54;16.80;;;15.20;;
4106;SDS011;21906;50.812;7.132;2022-07-21T15:21:20;14.67;;;12.43;;
4106;SDS011;21906;50.812;7.132;2022-07-21T15:23:46;17.40;;;13.83;;
4106;SDS011;21906;50.812;7.132;2022-07-21T15:26:12;15.40;;;13.80;;
4106;SDS011;21906;50.812;7.132;2022-07-21T15:28:37;13.07;;;11.90;;
4106;SDS011;21906;50.812;7.132;2022-07-21T15:31:03;15.67;;;14.03;;
4106;SDS011;21906;50.812;7.132;2022-07-21T15:33:29;21.63;;;13.80;;
4106;SDS011;21906;50.812;7.132;2022-07-21T15:35:54;14.90;;;13.20;;
4106;SDS011;21906;50.812;7.132;2022-07-21T15:38:21;15.50;;;14.10;;
4106;SDS011;21906;50.812;7.132;2022-07-21T15:40:47;14.10;;;12.60;;
4106;SDS011;21906;50.812;7.132;2022-07-21T15:43:14;12.97;;;11.67;;
4106;SDS011;21906;50.812;7.132;2022-07-21T15:45:40;13.30;;;12.00;;